Time;durP1;ratioP1;P1;durP2;ratioP2;P2;SDS_P1;SDS_P2;PMS_P1;PMS_P2;Temp;Humidity;BMP_temperature;BMP_pressure;BME280_temperature;BME280_humidity;BME280_pressure;Samples;Min_cycle;Max_cycle;Signal;HPM_P1;HPM_P2
2023/01/22 00:00:17;;;;;;;103.05;49.05;;;0.50;72.50;;;;;;4645622;30;115241;-82
2023/01/22 00:02:46;;;;;;;104.53;48.50;;;0.60;72.50;;;;;;4617757;30;114585;-81
2023/01/22 00:05:13;;;;;;;110.15;49.58;;;0.60;72.30;;;;;;4632154;30;114716;-81
2023/01/22 00:07:41;;;;;;;125.28;54.58;;;0.60;72.20;;;;;;4631435;30;115215;-83
2023/01/22 00:10:10;;;;;;;116.75;53.40;;;0.60;72.20;;;;;;4631767;30;115424;-83
2023/01/22 00:12:37;;;;;;;109.13;50.13;;;0.60;72.10;;;;;;4618593;30;114800;-81
2023/01/22 00:15:05;;;;;;;125.07;58.28;;;0.70;72.10;;;;;;4632484;30;114532;-82
2023/01/22 00:17:32;;;;;;;130.68;58.00;;;0.70;72.00;;;;;;4617090;30;117005;-82
2023/01/22 00:20:00;;;;;;;131.38;58.80;;;0.70;72.00;;;;;;4631502;30;117226;-82
2023/01/22 00:22:27;;;;;;;133.30;59.67;;;0.70;72.00;;;;;;4618272;30;114659;-82
2023/01/22 00:24:55;;;;;;;101.57;48.97;;;0.70;71.90;;;;;;4632409;30;114525;-84
2023/01/22 00:27:22;;;;;;;105.32;48.28;;;0.80;72.00;;;;;;4616688;30;115791;-83
2023/01/22 00:29:50;;;;;;;108.88;47.97;;;0.70;72.00;;;;;;4617037;30;116883;-82
2023/01/22 00:32:17;;;;;;;104.85;47.53;;;0.60;72.10;;;;;;4631499;30;114741;-82
2023/01/22 00:34:51;;;;;;;100.55;44.83;;;0.60;72.30;;;;;;4617876;30;114920;-83
2023/01/22 00:37:19;;;;;;;111.60;51.80;;;0.50;72.40;;;;;;4631128;30;114839;-83
2023/01/22 00:39:46;;;;;;;108.57;47.85;;;0.40;72.50;;;;;;4602873;30;117462;-83
2023/01/22 00:42:14;;;;;;;112.68;49.30;;;0.40;72.70;;;;;;4633460;30;114749;-82
2023/01/22 00:44:41;;;;;;;114.82;51.38;;;0.40;72.80;;;;;;4618536;30;114403;-82
2023/01/22 00:47:08;;;;;;;102.72;49.15;;;0.30;73.00;;;;;;4632484;30;115153;-82
2023/01/22 00:49:36;;;;;;;117.30;50.60;;;0.30;72.90;;;;;;4616014;30;118175;-82
2023/01/22 00:52:04;;;;;;;109.50;50.67;;;0.20;73.00;;;;;;4631177;30;114454;-82
2023/01/22 00:54:31;;;;;;;116.50;52.33;;;0.30;73.20;;;;;;4617803;30;115070;-83
2023/01/22 00:57:01;;;;;;;114.18;52.17;;;0.30;73.20;;;;;;4617351;30;116242;-83
2023/01/22 00:59:30;;;;;;;112.90;51.10;;;0.40;73.10;;;;;;4630609;30;116008;-82
2023/01/22 01:01:57;;;;;;;111.35;51.78;;;0.40;73.10;;;;;;4631767;30;114644;-83
2023/01/22 01:04:25;;;;;;;113.45;48.88;;;0.30;73.10;;;;;;4646063;30;114567;-82
2023/01/22 01:06:55;;;;;;;119.28;54.28;;;0.40;73.10;;;;;;4634127;30;117974;-83
2023/01/22 01:09:22;;;;;;;113.72;51.45;;;0.40;73.20;;;;;;4634493;30;114910;-83
2023/01/22 01:11:50;;;;;;;98.57;46.65;;;0.40;73.20;;;;;;4649362;30;114444;-82
2023/01/22 01:14:18;;;;;;;104.65;49.97;;;0.50;73.20;;;;;;4635336;30;114857;-83
2023/01/22 01:16:49;;;;;;;91.32;44.13;;;0.50;73.00;;;;;;4632517;30;119310;-83
2023/01/22 01:19:16;;;;;;;95.88;47.10;;;0.50;73.10;;;;;;4619806;30;115013;-83
2023/01/22 01:21:43;;;;;;;95.18;45.45;;;0.50;73.00;;;;;;4634747;30;114793;-83
2023/01/22 01:24:11;;;;;;;107.07;50.30;;;0.50;73.00;;;;;;4636062;30;114587;-84
2023/01/22 01:26:39;;;;;;;100.57;47.67;;;0.40;73.10;;;;;;4633340;30;118269;-84
2023/01/22 01:29:09;;;;;;;105.20;48.13;;;0.40;73.10;;;;;;4619168;30;117343;-83
2023/01/22 01:31:37;;;;;;;103.97;46.92;;;0.40;73.20;;;;;;4620095;30;114760;-84
2023/01/22 01:34:04;;;;;;;97.15;46.80;;;0.50;73.40;;;;;;4653403;30;114732;-84
2023/01/22 01:36:32;;;;;;;106.00;50.20;;;0.60;73.30;;;;;;4650927;30;115365;-84
2023/01/22 01:39:15;;;;;;;114.20;53.13;;;0.60;73.20;;;;;;4621005;30;119351;-85
2023/01/22 01:41:43;;;;;;;119.30;55.22;;;0.70;73.10;;;;;;4636639;30;115334;-85
2023/01/22 01:44:19;;;;;;;113.93;52.28;;;0.80;73.10;;;;;;4652750;30;116246;-84
2023/01/22 01:47:30;;;;;;;111.78;51.78;;;0.80;73.00;;;;;;4651727;30;115327;-84
2023/01/22 01:49:57;;;;;;;110.07;52.83;;;0.80;72.80;;;;;;4636132;30;115293;-83
2023/01/22 01:52:25;;;;;;;111.35;51.95;;;0.80;72.90;;;;;;4636952;30;118364;-84
2023/01/22 01:54:53;;;;;;;92.70;49.45;;;0.90;72.90;;;;;;4637176;30;114790;-84
2023/01/22 01:57:24;;;;;;;98.30;50.55;;;0.90;72.90;;;;;;4620875;30;119727;-84
2023/01/22 02:00:58;;;;;;;95.78;48.80;;;0.90;72.80;;;;;;4622214;30;114769;-84
2023/01/22 02:03:29;;;;;;;82.85;42.97;;;0.80;72.40;;;;;;4650961;30;114818;-84
2023/01/22 02:05:56;;;;;;;94.47;47.25;;;0.60;72.50;;;;;;4622541;30;116524;-83
2023/01/22 02:08:23;;;;;;;93.13;47.17;;;0.60;72.50;;;;;;4606992;30;118384;-84
2023/01/22 02:10:50;;;;;;;94.93;47.30;;;0.40;72.80;;;;;;4635630;30;116135;-86
2023/01/22 02:13:25;;;;;;;105.07;50.75;;;0.40;72.90;;;;;;4621996;30;115574;-82
2023/01/22 02:15:52;;;;;;;106.22;50.65;;;0.40;73.10;;;;;;4621859;30;116345;-83
2023/01/22 02:18:19;;;;;;;92.20;45.72;;;0.30;72.90;;;;;;4648791;30;115526;-83
2023/01/22 02:20:59;;;;;;;99.63;47.72;;;0.20;72.90;;;;;;4620654;30;115928;-84
2023/01/22 02:23:28;;;;;;;90.53;46.20;;;0.20;73.20;;;;;;4650298;30;114796;-83
2023/01/22 02:25:57;;;;;;;99.57;49.03;;;0.10;73.40;;;;;;4607928;30;114919;-83
2023/01/22 02:28:24;;;;;;;100.03;48.00;;;0.10;73.60;;;;;;4621009;30;115349;-84
2023/01/22 02:30:53;;;;;;;96.10;46.85;;;0.20;73.50;;;;;;4649133;30;115593;-84
2023/01/22 02:33:21;;;;;;;90.15;44.05;;;0.20;73.30;;;;;;4649368;30;114795;-83
2023/01/22 02:35:48;;;;;;;102.22;48.70;;;0.20;73.30;;;;;;4650136;30;115688;-83
2023/01/22 02:38:16;;;;;;;96.40;45.40;;;0.10;73.40;;;;;;4649338;30;115436;-81
2023/01/22 02:40:47;;;;;;;91.70;45.67;;;0.20;73.40;;;;;;4635081;30;116489;-82
2023/01/22 02:43:18;;;;;;;85.38;41.72;;;0.20;73.40;;;;;;4650367;30;115167;-82
2023/01/22 02:45:45;;;;;;;91.60;45.20;;;0.10;73.40;;;;;;4650011;30;117902;-82
2023/01/22 02:48:12;;;;;;;89.97;43.22;;;0.10;73.60;;;;;;4649150;30;115203;-82
2023/01/22 02:50:40;;;;;;;88.65;44.03;;;0.10;73.50;;;;;;4620920;30;114718;-81
2023/01/22 02:53:07;;;;;;;91.32;45.33;;;0.10;73.60;;;;;;4648927;30;114589;-82
2023/01/22 02:55:34;;;;;;;88.22;42.33;;;0.10;73.60;;;;;;4650011;30;114625;-82
2023/01/22 02:58:02;;;;;;;86.10;40.47;;;0.00;73.60;;;;;;4634288;30;118260;-82
2023/01/22 03:00:29;;;;;;;96.45;44.63;;;0.00;73.70;;;;;;4634479;30;115823;-82
2023/01/22 03:02:56;;;;;;;92.25;41.97;;;0.00;73.80;;;;;;4636038;30;114419;-82
2023/01/22 03:05:24;;;;;;;85.60;41.70;;;-0.10;73.80;;;;;;4650373;30;115948;-83
2023/01/22 03:07:51;;;;;;;82.35;39.88;;;-0.10;74.00;;;;;;4650480;30;115163;-83
2023/01/22 03:10:19;;;;;;;88.53;42.58;;;0.00;73.90;;;;;;4649218;30;115471;-82
2023/01/22 03:21:17;;;;;;;83.15;39.08;;;0.00;74.00;;;;;;4638084;30;114767;-82
2023/01/22 03:23:48;;;;;;;78.30;40.35;;;0.00;74.00;;;;;;4649326;30;114647;-82
2023/01/22 03:26:18;;;;;;;73.68;38.13;;;-0.10;74.10;;;;;;4621304;30;114653;-82
2023/01/22 03:28:47;;;;;;;63.97;33.00;;;-0.10;74.10;;;;;;4634825;30;115223;-82
2023/01/22 03:31:15;;;;;;;72.70;36.17;;;-0.10;74.20;;;;;;4620510;30;115920;-82
2023/01/22 03:33:42;;;;;;;76.80;39.30;;;-0.10;74.20;;;;;;4618104;30;114862;-81
2023/01/22 03:36:12;;;;;;;87.28;39.55;;;-0.10;74.20;;;;;;4650182;30;114688;-82
2023/01/22 03:38:45;;;;;;;73.85;36.10;;;0.00;74.20;;;;;;4635723;30;115049;-82
2023/01/22 03:41:16;;;;;;;74.80;38.45;;;0.00;74.20;;;;;;4635500;30;116081;-82
2023/01/22 03:43:45;;;;;;;69.45;35.20;;;0.00;74.20;;;;;;4635539;30;114564;-82
2023/01/22 03:46:23;;;;;;;64.72;33.83;;;0.00;74.10;;;;;;4650043;30;115234;-82
2023/01/22 03:48:54;;;;;;;69.32;37.42;;;0.00;74.10;;;;;;4634228;30;116583;-82
2023/01/22 03:51:24;;;;;;;65.85;33.78;;;0.10;74.00;;;;;;4648429;30;116893;-83
2023/01/22 03:53:51;;;;;;;71.53;35.85;;;-0.10;74.00;;;;;;4635151;30;114567;-81
2023/01/22 03:56:20;;;;;;;61.75;32.25;;;-0.10;74.00;;;;;;4635392;30;114654;-83
2023/01/22 03:58:48;;;;;;;66.40;31.98;;;-0.10;74.10;;;;;;4634417;30;115467;-84
2023/01/22 04:01:20;;;;;;;62.35;33.90;;;-0.10;74.20;;;;;;4648630;30;115340;-85
2023/01/22 04:03:47;;;;;;;59.63;31.35;;;0.00;74.20;;;;;;4621248;30;114515;-84
2023/01/22 04:06:15;;;;;;;54.53;28.70;;;-0.10;74.10;;;;;;4649790;30;114946;-84
2023/01/22 04:08:43;;;;;;;61.65;31.25;;;-0.10;74.10;;;;;;4634385;30;115123;-82
2023/01/22 04:11:11;;;;;;;60.25;30.38;;;-0.20;74.10;;;;;;4634494;30;114911;-84
2023/01/22 04:13:39;;;;;;;44.67;25.17;;;-0.30;74.10;;;;;;4648912;30;114648;-84
2023/01/22 04:16:07;;;;;;;59.17;29.38;;;-0.30;74.20;;;;;;4620694;30;114926;-84
2023/01/22 04:18:58;;;;;;;51.13;26.95;;;-0.30;74.20;;;;;;4621415;30;120692;-84
2023/01/22 04:21:47;;;;;;;61.15;31.10;;;-0.40;74.20;;;;;;4647793;30;116169;-83
2023/01/22 04:24:15;;;;;;;53.58;29.30;;;-0.40;74.30;;;;;;4649096;30;114495;-83
2023/01/22 04:26:42;;;;;;;60.17;30.38;;;-0.40;74.40;;;;;;4634925;30;114686;-84
2023/01/22 04:29:11;;;;;;;54.72;27.73;;;-0.40;74.50;;;;;;4648648;30;115142;-83
2023/01/22 04:31:39;;;;;;;59.88;29.95;;;-0.50;74.50;;;;;;4634416;30;114564;-83
2023/01/22 04:34:06;;;;;;;55.60;29.63;;;-0.50;74.60;;;;;;4650252;30;114727;-84
2023/01/22 04:36:40;;;;;;;60.30;30.92;;;-0.50;74.60;;;;;;4649754;30;114758;-84
2023/01/22 04:39:07;;;;;;;65.45;33.70;;;-0.50;74.70;;;;;;4648421;30;115265;-84
2023/01/22 04:41:35;;;;;;;40.30;22.60;;;-0.50;74.70;;;;;;4636650;30;115219;-84
2023/01/22 04:44:02;;;;;;;51.35;26.63;;;-0.50;74.70;;;;;;4652605;30;114570;-82
2023/01/22 04:46:35;;;;;;;49.83;25.25;;;-0.50;74.80;;;;;;4653257;30;118427;-83
2023/01/22 04:49:03;;;;;;;51.55;26.52;;;-0.50;74.70;;;;;;4654260;30;115689;-83
2023/01/22 04:51:30;;;;;;;58.10;27.50;;;-0.50;74.70;;;;;;4625033;30;115730;-84
2023/01/22 04:53:58;;;;;;;51.03;26.83;;;-0.50;74.60;;;;;;4639720;30;115117;-83
2023/01/22 04:56:25;;;;;;;53.83;26.45;;;-0.50;74.70;;;;;;4653708;30;115030;-83
2023/01/22 04:58:52;;;;;;;52.88;26.50;;;-0.60;74.70;;;;;;4637878;30;115342;-83
2023/01/22 05:01:20;;;;;;;51.00;26.38;;;-0.60;74.70;;;;;;4638220;30;114851;-84
2023/01/22 05:03:53;;;;;;;46.45;22.95;;;-0.60;74.70;;;;;;4653725;30;114736;-84
2023/01/22 05:06:20;;;;;;;46.00;24.38;;;-0.60;74.70;;;;;;4653102;30;114389;-83
2023/01/22 05:08:48;;;;;;;45.30;21.05;;;-0.60;74.70;;;;;;4637849;30;115604;-83
2023/01/22 05:11:15;;;;;;;54.55;26.58;;;-0.70;74.70;;;;;;4652045;30;115006;-83
2023/01/22 05:13:56;;;;;;;53.13;26.88;;;-0.70;74.70;;;;;;4644865;30;114534;-83
2023/01/22 05:16:24;;;;;;;40.95;21.58;;;-0.80;74.90;;;;;;4638318;30;114748;-83
2023/01/22 05:18:51;;;;;;;38.30;21.20;;;-0.80;75.00;;;;;;4651331;30;115183;-82
2023/01/22 05:21:19;;;;;;;36.85;21.00;;;-0.80;75.00;;;;;;4651602;30;114517;-83
2023/01/22 05:23:47;;;;;;;43.78;22.30;;;-0.80;75.00;;;;;;4624025;30;114757;-84
2023/01/22 05:26:16;;;;;;;43.85;22.02;;;-0.80;75.00;;;;;;4638082;30;115542;-83
2023/01/22 05:28:57;;;;;;;48.60;24.45;;;-0.80;75.00;;;;;;4650924;30;115218;-83
2023/01/22 05:31:39;;;;;;;38.38;20.95;;;-0.90;75.00;;;;;;4652365;30;114921;-82
2023/01/22 05:34:14;;;;;;;47.65;25.17;;;-0.90;75.10;;;;;;4625788;30;114949;-83
2023/01/22 05:36:41;;;;;;;35.90;19.05;;;-0.80;75.10;;;;;;4652450;30;114656;-83
2023/01/22 05:39:16;;;;;;;32.25;17.77;;;-0.80;75.10;;;;;;4651214;30;115151;-83
2023/01/22 05:41:43;;;;;;;47.05;24.40;;;-0.80;75.10;;;;;;4622819;30;114757;-83
2023/01/22 05:44:12;;;;;;;45.17;22.38;;;-0.90;75.20;;;;;;4652299;30;114534;-82
2023/01/22 05:46:40;;;;;;;48.63;23.98;;;-0.90;75.30;;;;;;4623850;30;115000;-82
2023/01/22 05:49:18;;;;;;;41.45;21.30;;;-0.90;75.30;;;;;;4651229;30;115105;-83
2023/01/22 05:51:45;;;;;;;37.92;20.50;;;-0.90;75.40;;;;;;4635780;30;117823;-83
2023/01/22 05:54:13;;;;;;;44.72;21.50;;;-0.90;75.50;;;;;;4636734;30;114726;-83
2023/01/22 05:56:42;;;;;;;44.53;22.02;;;-0.90;75.40;;;;;;4652853;30;115679;-83
2023/01/22 05:59:11;;;;;;;49.45;24.95;;;-0.90;75.50;;;;;;4654962;30;115099;-82
2023/01/22 06:01:39;;;;;;;47.15;25.20;;;-0.90;75.50;;;;;;4640928;30;115335;-83
2023/01/22 06:04:07;;;;;;;48.50;26.30;;;-0.90;75.70;;;;;;4642976;30;114419;-83
2023/01/22 06:06:36;;;;;;;46.35;24.05;;;-0.80;75.60;;;;;;4656808;30;114624;-84
2023/01/22 06:09:04;;;;;;;48.22;24.38;;;-0.80;75.60;;;;;;4642871;30;116489;-84
2023/01/22 06:11:35;;;;;;;48.25;24.70;;;-0.90;75.60;;;;;;4641021;30;115072;-84
2023/01/22 06:14:02;;;;;;;50.17;25.80;;;-0.90;75.70;;;;;;4658120;30;114743;-83
2023/01/22 06:16:31;;;;;;;47.58;25.25;;;-0.80;75.80;;;;;;4641053;30;114621;-83
2023/01/22 06:19:14;;;;;;;42.95;22.45;;;-0.80;75.80;;;;;;4641665;30;116086;-84
2023/01/22 06:21:52;;;;;;;43.22;22.48;;;-0.80;75.80;;;;;;4640586;30;118285;-82
2023/01/22 06:24:29;;;;;;;45.53;24.17;;;-0.80;75.80;;;;;;4628229;30;114654;-84
2023/01/22 06:26:58;;;;;;;47.78;23.65;;;-0.80;75.80;;;;;;4641205;30;114967;-83
2023/01/22 06:29:35;;;;;;;39.97;21.35;;;-0.80;75.70;;;;;;4602917;30;118005;-83
2023/01/22 06:32:05;;;;;;;40.78;20.67;;;-0.80;75.70;;;;;;4619715;30;115979;-83
2023/01/22 06:34:33;;;;;;;43.85;23.52;;;-0.80;75.60;;;;;;4621353;30;116168;-83
2023/01/22 06:37:01;;;;;;;45.63;22.30;;;-0.80;75.70;;;;;;4621340;30;114879;-82
2023/01/22 06:39:32;;;;;;;44.67;22.08;;;-0.90;75.70;;;;;;4648202;30;115462;-83
2023/01/22 06:42:06;;;;;;;37.15;18.63;;;-0.90;75.80;;;;;;4647655;30;114865;-83
2023/01/22 06:44:33;;;;;;;41.70;23.15;;;-0.90;75.90;;;;;;4649555;30;114559;-83
2023/01/22 06:47:01;;;;;;;45.45;22.38;;;-0.90;75.90;;;;;;4634034;30;116416;-83
2023/01/22 06:49:29;;;;;;;43.50;21.63;;;-0.90;76.00;;;;;;4633993;30;115834;-82
2023/01/22 06:52:00;;;;;;;42.47;20.80;;;-0.90;76.10;;;;;;4648708;30;115343;-83
2023/01/22 06:54:27;;;;;;;40.90;19.85;;;-0.90;76.20;;;;;;4634936;30;116532;-84
2023/01/22 06:56:55;;;;;;;44.70;21.77;;;-0.80;76.20;;;;;;4627247;30;114679;-84
2023/01/22 06:59:23;;;;;;;35.80;18.83;;;-0.80;76.00;;;;;;4625112;30;115367;-83
2023/01/22 07:01:51;;;;;;;39.85;21.60;;;-0.80;76.00;;;;;;4661030;30;115680;-84
2023/01/22 07:04:18;;;;;;;38.58;22.05;;;-0.80;76.10;;;;;;4650120;30;114777;-84
2023/01/22 07:06:46;;;;;;;37.10;19.48;;;-0.80;76.10;;;;;;4633465;30;115515;-83
2023/01/22 07:09:13;;;;;;;37.10;18.85;;;-0.80;76.00;;;;;;4634740;30;117894;-83
2023/01/22 07:11:40;;;;;;;40.33;21.88;;;-0.70;75.90;;;;;;4649448;30;115194;-82
2023/01/22 07:14:07;;;;;;;43.78;21.92;;;-0.80;75.90;;;;;;4635756;30;116992;-83
2023/01/22 07:16:35;;;;;;;41.38;21.63;;;-0.80;76.00;;;;;;4649162;30;114677;-82
2023/01/22 07:19:02;;;;;;;35.47;18.27;;;-0.80;75.90;;;;;;4650586;30;115268;-82
2023/01/22 07:21:29;;;;;;;40.72;20.58;;;-0.80;76.00;;;;;;4620589;30;117716;-82
2023/01/22 07:23:57;;;;;;;40.03;20.20;;;-0.80;76.00;;;;;;4635832;30;114644;-83
2023/01/22 07:26:24;;;;;;;32.85;16.23;;;-0.80;76.10;;;;;;4636636;30;114822;-83
2023/01/22 07:28:51;;;;;;;32.13;17.95;;;-0.70;76.00;;;;;;4649357;30;115191;-83
2023/01/22 07:31:19;;;;;;;39.72;19.33;;;-0.70;75.90;;;;;;4620418;30;117700;-83
2023/01/22 07:33:46;;;;;;;33.65;17.13;;;-0.70;76.00;;;;;;4650532;30;114598;-82
2023/01/22 07:36:13;;;;;;;37.85;18.25;;;-0.70;76.10;;;;;;4650434;30;114672;-83
2023/01/22 07:38:41;;;;;;;43.72;20.55;;;-0.80;76.00;;;;;;4649600;30;115853;-85
2023/01/22 07:41:08;;;;;;;35.42;19.73;;;-0.70;76.10;;;;;;4620967;30;118990;-83
2023/01/22 07:43:52;;;;;;;34.65;18.35;;;-0.70;76.10;;;;;;4659749;30;114756;-84
2023/01/22 07:46:27;;;;;;;35.22;17.20;;;-0.70;76.00;;;;;;4642967;30;114441;-85
2023/01/22 07:48:57;;;;;;;36.13;18.15;;;-0.70;76.00;;;;;;4628303;30;115718;-83
2023/01/22 07:51:25;;;;;;;37.13;18.92;;;-0.60;76.00;;;;;;4661292;30;115565;-84
2023/01/22 07:53:53;;;;;;;34.05;16.70;;;-0.70;76.10;;;;;;4627126;30;115149;-84
2023/01/22 07:56:20;;;;;;;35.75;18.95;;;-0.70;76.10;;;;;;4621800;30;114678;-82
2023/01/22 07:58:47;;;;;;;37.10;19.00;;;-0.60;76.10;;;;;;4633899;30;115556;-82
2023/01/22 08:01:15;;;;;;;35.75;19.55;;;-0.60;76.10;;;;;;4619785;30;114782;-84
2023/01/22 08:03:44;;;;;;;38.17;19.65;;;-0.60;76.10;;;;;;4635994;30;115543;-83
2023/01/22 08:06:15;;;;;;;32.85;16.98;;;-0.60;76.10;;;;;;4634755;30;114870;-82
2023/01/22 08:08:42;;;;;;;37.00;19.50;;;-0.50;76.10;;;;;;4619954;30;115233;-83
2023/01/22 08:11:10;;;;;;;39.50;20.80;;;-0.50;76.00;;;;;;4633859;30;115983;-83
2023/01/22 08:13:37;;;;;;;40.70;20.10;;;-0.50;75.90;;;;;;4632015;30;114827;-83
2023/01/22 08:16:05;;;;;;;37.33;19.75;;;-0.60;75.90;;;;;;4616168;30;115203;-83
2023/01/22 08:18:32;;;;;;;36.63;20.17;;;-0.60;75.90;;;;;;4617817;30;115184;-83
2023/01/22 08:21:00;;;;;;;39.88;19.90;;;-0.50;76.00;;;;;;4646905;30;116950;-84
2023/01/22 08:23:27;;;;;;;41.72;19.45;;;-0.50;76.00;;;;;;4618707;30;114583;-83
2023/01/22 08:26:02;;;;;;;37.03;19.00;;;-0.50;75.90;;;;;;4624924;30;114573;-84
2023/01/22 08:28:30;;;;;;;40.15;21.48;;;-0.40;75.90;;;;;;4594800;30;118152;-84
2023/01/22 08:30:59;;;;;;;40.13;21.45;;;-0.50;75.90;;;;;;4646930;30;116690;-83
2023/01/22 08:33:26;;;;;;;41.15;21.45;;;-0.50;75.90;;;;;;4618643;30;114687;-84
2023/01/22 08:35:54;;;;;;;41.60;21.40;;;-0.40;75.90;;;;;;4648000;30;114507;-83
2023/01/22 08:38:21;;;;;;;39.83;21.58;;;-0.40;75.90;;;;;;4632990;30;116065;-84
2023/01/22 08:40:52;;;;;;;41.03;21.67;;;-0.40;76.00;;;;;;4647016;30;114697;-83
2023/01/22 08:43:19;;;;;;;39.70;20.77;;;-0.40;76.00;;;;;;4633428;30;114566;-84
2023/01/22 08:45:49;;;;;;;37.60;19.15;;;-0.40;75.90;;;;;;4634060;30;114635;-83
2023/01/22 08:48:17;;;;;;;37.90;18.67;;;-0.30;75.90;;;;;;4632275;30;116886;-83
2023/01/22 08:50:44;;;;;;;41.00;19.52;;;-0.30;75.80;;;;;;4632235;30;116667;-83
2023/01/22 08:53:14;;;;;;;42.08;21.58;;;-0.30;75.80;;;;;;4633904;30;114656;-83
2023/01/22 08:55:47;;;;;;;42.15;22.40;;;-0.20;75.80;;;;;;4649081;30;114559;-86
2023/01/22 08:58:14;;;;;;;36.53;18.70;;;-0.10;75.60;;;;;;4632609;30;115153;-82
2023/01/22 09:00:43;;;;;;;36.65;19.00;;;-0.20;75.50;;;;;;4646771;30;115014;-84
2023/01/22 09:03:11;;;;;;;38.47;21.38;;;-0.20;75.30;;;;;;4632405;30;118447;-83
2023/01/22 09:05:39;;;;;;;44.33;22.23;;;-0.30;75.50;;;;;;4647048;30;114507;-82
2023/01/22 09:08:07;;;;;;;39.97;21.33;;;-0.20;75.50;;;;;;4617936;30;118375;-82
2023/01/22 09:10:35;;;;;;;36.22;19.33;;;-0.20;75.50;;;;;;4631108;30;118433;-83
2023/01/22 09:13:03;;;;;;;39.03;20.63;;;-0.30;75.50;;;;;;4646974;30;114655;-81
2023/01/22 09:15:31;;;;;;;40.92;20.55;;;-0.30;75.50;;;;;;4633855;30;114676;-82
2023/01/22 09:17:59;;;;;;;38.92;19.50;;;-0.20;75.60;;;;;;4647496;30;116443;-82
2023/01/22 09:20:26;;;;;;;34.33;17.48;;;-0.20;75.60;;;;;;4648839;30;114778;-83
2023/01/22 09:22:53;;;;;;;33.45;18.02;;;-0.30;75.60;;;;;;4648473;30;114836;-83
2023/01/22 09:25:20;;;;;;;38.17;19.75;;;-0.30;75.60;;;;;;4649502;30;114676;-84
2023/01/22 09:27:48;;;;;;;45.17;22.00;;;-0.20;75.60;;;;;;4648418;30;115680;-83
2023/01/22 09:30:15;;;;;;;43.63;22.50;;;-0.20;75.60;;;;;;4636056;30;117453;-83
2023/01/22 09:32:43;;;;;;;43.58;23.20;;;-0.20;75.60;;;;;;4649701;30;115212;-84
2023/01/22 09:35:10;;;;;;;37.95;20.35;;;-0.20;75.60;;;;;;4621750;30;115990;-82
2023/01/22 09:37:37;;;;;;;42.08;21.52;;;-0.10;75.60;;;;;;4649640;30;115675;-84
2023/01/22 09:40:06;;;;;;;47.05;22.92;;;-0.10;75.60;;;;;;4651481;30;114697;-83
2023/01/22 09:42:36;;;;;;;43.28;22.30;;;-0.10;75.60;;;;;;4637388;30;115922;-84
2023/01/22 09:45:09;;;;;;;43.95;21.75;;;-0.10;75.60;;;;;;4608264;30;114879;-84
2023/01/22 09:47:48;;;;;;;48.00;23.30;;;-0.10;75.60;;;;;;4621384;30;116171;-83
2023/01/22 09:50:27;;;;;;;41.17;22.17;;;-0.10;75.70;;;;;;4636436;30;115129;-82
2023/01/22 09:52:57;;;;;;;48.38;23.13;;;-0.10;75.80;;;;;;4637575;30;115506;-84
2023/01/22 09:55:29;;;;;;;42.70;22.90;;;-0.20;75.60;;;;;;4652018;30;114561;-83
2023/01/22 09:58:00;;;;;;;44.15;23.63;;;-0.20;75.70;;;;;;4664364;30;115656;-83
2023/01/22 10:00:40;;;;;;;48.58;23.80;;;-0.20;75.90;;;;;;4621512;30;116021;-83
2023/01/22 10:03:41;;;;;;;45.10;22.52;;;-0.10;76.00;;;;;;4636025;30;114864;-84
2023/01/22 10:06:17;;;;;;;48.67;23.52;;;-0.10;75.90;;;;;;4638126;30;114636;-84
2023/01/22 10:09:08;;;;;;;45.78;22.25;;;-0.10;75.90;;;;;;4635069;30;116428;-85
2023/01/22 10:11:36;;;;;;;47.83;22.67;;;-0.20;76.00;;;;;;4635579;30;117691;-84
2023/01/22 10:14:08;;;;;;;44.15;22.00;;;-0.20;76.00;;;;;;4636282;30;114893;-83
2023/01/22 10:16:36;;;;;;;44.72;23.08;;;-0.10;76.10;;;;;;4649425;30;114769;-83
2023/01/22 10:19:25;;;;;;;47.50;22.83;;;-0.10;76.10;;;;;;4635646;30;115164;-83
2023/01/22 10:22:02;;;;;;;40.28;21.42;;;0.00;76.30;;;;;;4635740;30;115887;-83
2023/01/22 10:24:30;;;;;;;36.47;20.15;;;0.10;76.30;;;;;;4636871;30;114422;-84
2023/01/22 10:26:58;;;;;;;43.83;22.60;;;0.10;76.10;;;;;;4622137;30;115079;-83
2023/01/22 10:29:28;;;;;;;43.10;21.88;;;0.20;75.90;;;;;;4620188;30;118539;-84
2023/01/22 10:32:20;;;;;;;49.95;24.33;;;0.20;76.00;;;;;;4650646;30;114907;-83
2023/01/22 10:35:17;;;;;;;45.97;24.95;;;0.20;75.80;;;;;;4620203;30;114739;-84
2023/01/22 10:37:48;;;;;;;46.35;24.00;;;0.20;75.80;;;;;;4620961;30;114972;-83
2023/01/22 10:40:37;;;;;;;54.70;24.80;;;0.10;75.70;;;;;;4621051;30;115359;-84
2023/01/22 10:43:13;;;;;;;78.35;38.42;;;0.10;76.00;;;;;;4650631;30;114708;-82
2023/01/22 10:45:58;;;;;;;48.13;23.80;;;0.10;76.00;;;;;;4635584;30;114667;-83
2023/01/22 10:48:25;;;;;;;45.80;22.35;;;0.10;76.00;;;;;;4635700;30;114913;-83
2023/01/22 10:51:16;;;;;;;42.28;22.70;;;0.10;76.00;;;;;;4638793;30;116292;-82
2023/01/22 10:53:49;;;;;;;50.25;26.02;;;0.10;76.10;;;;;;4634880;30;116828;-84
2023/01/22 10:56:29;;;;;;;46.78;23.15;;;0.20;76.00;;;;;;4635955;30;114523;-83
2023/01/22 10:58:57;;;;;;;49.28;24.60;;;0.20;75.90;;;;;;4636346;30;114531;-83
2023/01/22 11:01:36;;;;;;;53.60;25.67;;;0.20;75.90;;;;;;4650295;30;117035;-82
2023/01/22 11:04:12;;;;;;;51.45;26.92;;;0.20;75.80;;;;;;4635017;30;114758;-83
2023/01/22 11:06:49;;;;;;;45.65;24.48;;;0.20;76.00;;;;;;4651204;30;114606;-82
2023/01/22 11:09:23;;;;;;;42.63;22.70;;;0.30;75.90;;;;;;4635981;30;114632;-82
2023/01/22 11:12:18;;;;;;;46.67;24.43;;;0.30;75.80;;;;;;4634880;30;115505;-83
2023/01/22 11:14:57;;;;;;;;;;;0.30;75.90;;;;;;4622817;30;114766;-83
2023/01/22 11:17:31;;;;;;;45.15;22.52;;;0.20;75.80;;;;;;4648955;30;114763;-82
2023/01/22 11:20:03;;;;;;;49.45;24.15;;;0.20;75.90;;;;;;4635763;30;114558;-83
2023/01/22 11:22:34;;;;;;;47.33;25.02;;;0.30;76.00;;;;;;4634449;30;115573;-82
2023/01/22 11:25:01;;;;;;;44.92;24.00;;;0.40;76.00;;;;;;4648980;30;114839;-83
2023/01/22 11:27:35;;;;;;;46.10;23.80;;;0.40;76.00;;;;;;4650274;30;114617;-83
2023/01/22 11:30:27;;;;;;;45.45;22.83;;;0.40;75.90;;;;;;4649953;30;115172;-83
2023/01/22 11:33:27;;;;;;;45.17;22.23;;;0.40;75.70;;;;;;4647663;30;115836;-82
2023/01/22 11:35:57;;;;;;;49.08;23.08;;;0.50;75.90;;;;;;4648572;30;115199;-83
2023/01/22 11:38:50;;;;;;;46.72;24.27;;;0.50;75.80;;;;;;4650404;30;114647;-83
2023/01/22 11:41:54;;;;;;;48.95;24.05;;;0.50;75.70;;;;;;4635352;30;114577;-83
2023/01/22 11:44:48;;;;;;;52.10;26.27;;;0.50;75.60;;;;;;4619894;30;119136;-82
2023/01/22 11:48:18;;;;;;;44.08;22.15;;;0.50;75.60;;;;;;4633965;30;118282;-82
2023/01/22 11:51:11;;;;;;;46.70;23.55;;;0.50;75.70;;;;;;4630406;30;114936;-82
2023/01/22 11:53:58;;;;;;;50.58;25.42;;;0.50;75.70;;;;;;4634475;30;114659;-83
2023/01/22 11:57:13;;;;;;;48.03;23.77;;;0.50;75.70;;;;;;4634699;30;117302;-83
2023/01/22 12:00:24;;;;;;;44.30;22.30;;;0.60;75.70;;;;;;4649463;30;115306;-84
2023/01/22 12:02:54;;;;;;;50.03;25.35;;;0.60;75.80;;;;;;4614768;30;114684;-83
2023/01/22 12:05:59;;;;;;;47.45;26.15;;;0.60;75.50;;;;;;4650360;30;114882;-84
2023/01/22 12:08:54;;;;;;;52.55;24.75;;;0.70;75.50;;;;;;4649407;30;115269;-83
2023/01/22 12:11:42;;;;;;;49.42;25.08;;;0.70;75.50;;;;;;4649800;30;115652;-83
2023/01/22 12:14:48;;;;;;;45.60;24.17;;;0.70;75.30;;;;;;4649189;30;114748;-83
2023/01/22 12:17:44;;;;;;;44.70;23.10;;;0.70;75.30;;;;;;4649344;30;117826;-84
2023/01/22 12:21:05;;;;;;;41.25;22.50;;;0.70;75.20;;;;;;4620347;30;115196;-82
2023/01/22 12:23:53;;;;;;;53.83;25.67;;;0.70;75.30;;;;;;4649388;30;114921;-81
2023/01/22 12:26:24;;;;;;;50.40;25.65;;;0.60;75.50;;;;;;4634716;30;114585;-84
2023/01/22 12:28:59;;;;;;;51.95;26.50;;;0.70;75.40;;;;;;4634741;30;114631;-85
2023/01/22 12:31:35;;;;;;;49.45;25.85;;;0.70;75.30;;;;;;4619003;30;116393;-85
2023/01/22 12:34:23;;;;;;;51.15;25.42;;;0.70;75.40;;;;;;4633189;30;115098;-84
2023/01/22 12:36:51;;;;;;;58.28;27.02;;;0.80;75.40;;;;;;4634294;30;114533;-83
2023/01/22 12:39:32;;;;;;;54.33;26.20;;;0.80;75.40;;;;;;4634971;30;114875;-84
2023/01/22 12:42:34;;;;;;;49.83;24.67;;;0.90;75.50;;;;;;4619468;30;115356;-84
2023/01/22 12:45:04;;;;;;;45.25;22.70;;;1.00;75.40;;;;;;4647930;30;116174;-83
2023/01/22 12:48:17;;;;;;;50.25;25.42;;;1.10;75.30;;;;;;4647941;30;114810;-83
2023/01/22 12:50:53;;;;;;;55.80;26.52;;;1.20;75.00;;;;;;4630298;30;114714;-84
2023/01/22 12:53:33;;;;;;;52.88;26.08;;;1.20;75.00;;;;;;4633528;30;115059;-84
2023/01/22 12:56:05;;;;;;;53.00;26.05;;;1.20;74.80;;;;;;4648905;30;114651;-83